createdAt,value
2023-05-22T00:01:06.954Z,8.30
2023-05-22T00:03:39.323Z,7.90
2023-05-22T00:06:12.314Z,14.07
2023-05-22T00:08:43.557Z,8.05
2023-05-22T00:13:50.028Z,8.50
2023-05-22T00:16:21.132Z,8.00
2023-05-22T00:18:52.509Z,8.45
2023-05-22T00:23:54.408Z,7.30
2023-05-22T00:28:59.317Z,8.55
2023-05-22T00:31:30.529Z,6.95
2023-05-22T00:34:02.094Z,6.55
2023-05-22T00:36:33.030Z,7.45
2023-05-22T00:39:04.710Z,7.50
2023-05-22T00:44:10.572Z,15.00
2023-05-22T00:46:41.536Z,8.95
2023-05-22T00:49:12.844Z,6.28
2023-05-22T00:54:16.053Z,6.93
2023-05-22T00:56:49.746Z,7.65
2023-05-22T00:59:21.347Z,7.30
2023-05-22T01:01:52.516Z,6.60
2023-05-22T01:04:23.870Z,6.05
2023-05-22T01:09:25.762Z,5.43
2023-05-22T01:14:43.538Z,6.18
2023-05-22T01:20:07.750Z,5.53
2023-05-22T01:23:03.412Z,6.43
2023-05-22T01:26:15.483Z,6.05
2023-05-22T01:29:09.533Z,5.43
2023-05-22T01:31:44.848Z,6.22
2023-05-22T01:34:17.660Z,5.75
2023-05-22T01:36:51.163Z,6.55
2023-05-22T01:39:22.902Z,6.00
2023-05-22T01:41:54.310Z,5.05
2023-05-22T01:47:05.395Z,5.88
2023-05-22T01:49:37.556Z,5.63
2023-05-22T01:52:13.847Z,5.85
2023-05-22T01:54:50.541Z,5.45
2023-05-22T01:57:25.276Z,6.30
2023-05-22T02:00:02.751Z,7.28
2023-05-22T02:02:41.285Z,6.57
2023-05-22T02:05:14.693Z,6.18
2023-05-22T02:07:47.299Z,6.68
2023-05-22T02:10:19.077Z,6.22
2023-05-22T02:12:50.819Z,6.30
2023-05-22T02:15:22.731Z,6.45
2023-05-22T02:17:57.229Z,6.10
2023-05-22T02:20:28.467Z,6.00
2023-05-22T02:22:59.772Z,6.22
2023-05-22T02:28:01.926Z,6.53
2023-05-22T02:33:10.116Z,6.28
2023-05-22T02:35:41.271Z,5.55
2023-05-22T02:38:12.507Z,5.70
2023-05-22T02:40:43.852Z,6.30
2023-05-22T02:43:15.115Z,6.30
2023-05-22T02:48:19.593Z,4.55
2023-05-22T02:50:50.995Z,5.68
2023-05-22T02:53:22.371Z,4.70
2023-05-22T02:58:26.091Z,5.60
2023-05-22T03:00:57.430Z,5.68
2023-05-22T03:03:31.779Z,5.85
2023-05-22T03:06:04.587Z,5.75
2023-05-22T03:08:43.855Z,5.55
2023-05-22T03:11:14.699Z,5.18
2023-05-22T03:13:45.995Z,5.63
2023-05-22T03:18:54.663Z,5.47
2023-05-22T03:21:25.681Z,5.18
2023-05-22T03:23:57.029Z,5.30
2023-05-22T03:29:01.006Z,5.80
2023-05-22T03:31:34.477Z,6.30
2023-05-22T03:34:30.604Z,5.93
2023-05-22T03:37:01.583Z,5.47
2023-05-22T03:39:32.908Z,5.40
2023-05-22T03:42:10.406Z,5.13
2023-05-22T03:44:42.447Z,5.32
2023-05-22T03:47:16.230Z,5.20
2023-05-22T03:49:50.114Z,4.85
2023-05-22T03:52:21.041Z,5.18
2023-05-22T03:54:52.312Z,4.53
2023-05-22T03:57:23.184Z,4.65
2023-05-22T03:59:54.571Z,4.78
2023-05-22T04:05:01.530Z,3.92
2023-05-22T04:07:32.881Z,4.82
2023-05-22T04:10:04.337Z,4.82
2023-05-22T04:12:35.386Z,4.90
2023-05-22T04:15:07.729Z,4.70
2023-05-22T04:17:43.706Z,4.53
2023-05-22T04:20:18.336Z,4.13
2023-05-22T04:22:49.378Z,4.85
2023-05-22T04:25:20.740Z,5.10
2023-05-22T04:30:25.980Z,4.70
2023-05-22T04:32:57.108Z,5.72
2023-05-22T04:35:32.536Z,6.65
2023-05-22T04:38:04.055Z,5.75
2023-05-22T04:40:35.315Z,5.78
2023-05-22T04:45:37.172Z,6.10
2023-05-22T04:50:48.699Z,6.53
2023-05-22T04:53:19.614Z,6.93
2023-05-22T04:55:50.986Z,5.95
2023-05-22T04:58:22.242Z,6.88
2023-05-22T05:00:54.398Z,7.78
2023-05-22T05:03:26.006Z,7.25
2023-05-22T05:06:00.826Z,6.78
2023-05-22T05:08:32.030Z,6.78
2023-05-22T05:11:03.485Z,6.60
2023-05-22T05:16:05.407Z,6.60
2023-05-22T05:18:36.275Z,8.30
2023-05-22T05:21:10.173Z,8.43
2023-05-22T05:23:41.615Z,8.30
2023-05-22T05:26:13.014Z,9.20
2023-05-22T05:28:44.572Z,22.92
2023-05-22T05:31:16.351Z,30.98
2023-05-22T05:34:00.413Z,34.40
2023-05-22T05:36:38.345Z,22.33
2023-05-22T05:39:09.728Z,11.27
2023-05-22T05:41:41.644Z,9.07
2023-05-22T05:44:14.208Z,8.43
2023-05-22T05:46:45.642Z,7.30
2023-05-22T05:49:19.274Z,9.85
2023-05-22T05:51:53.918Z,6.72
2023-05-22T05:54:26.752Z,6.65
2023-05-22T05:57:00.643Z,6.28
2023-05-22T05:59:32.345Z,6.00
2023-05-22T06:02:24.850Z,5.78
2023-05-22T06:04:59.707Z,6.43
2023-05-22T06:07:38.292Z,4.68
2023-05-22T06:10:12.838Z,4.72
2023-05-22T06:13:11.776Z,5.45
2023-05-22T06:15:43.641Z,5.15
2023-05-22T06:18:15.132Z,5.50
2023-05-22T06:20:50.169Z,5.32
2023-05-22T06:23:25.007Z,5.25
2023-05-22T06:25:57.670Z,5.88
2023-05-22T06:28:30.333Z,5.50
2023-05-22T06:31:03.653Z,5.75
2023-05-22T06:33:36.853Z,6.88
2023-05-22T06:36:09.177Z,6.20
2023-05-22T06:38:43.936Z,6.68
2023-05-22T06:41:30.384Z,6.55
2023-05-22T06:44:02.415Z,6.63
2023-05-22T06:46:34.390Z,5.32
2023-05-22T06:49:07.995Z,6.00
2023-05-22T06:51:50.256Z,5.63
2023-05-22T06:54:24.390Z,5.60
2023-05-22T06:57:00.976Z,6.07
2023-05-22T06:59:33.649Z,6.30
2023-05-22T07:02:27.428Z,5.97
2023-05-22T07:05:25.110Z,5.40
2023-05-22T07:08:02.899Z,5.72
2023-05-22T07:10:37.448Z,4.57
2023-05-22T07:13:08.608Z,4.05
2023-05-22T07:15:39.925Z,4.88
2023-05-22T07:18:12.826Z,4.43
2023-05-22T07:20:46.642Z,4.60
2023-05-22T07:23:22.300Z,4.25
2023-05-22T07:25:57.487Z,3.97
2023-05-22T07:28:33.757Z,4.50
2023-05-22T07:31:11.379Z,4.22
2023-05-22T07:33:43.274Z,4.15
2023-05-22T07:36:16.909Z,4.72
2023-05-22T07:38:51.342Z,4.53
2023-05-22T07:41:25.285Z,5.05
2023-05-22T07:43:56.845Z,4.93
2023-05-22T07:46:32.837Z,4.68
2023-05-22T07:49:12.963Z,4.23
2023-05-22T07:51:47.579Z,4.78
2023-05-22T07:54:20.349Z,4.47
2023-05-22T07:56:58.729Z,3.78
2023-05-22T07:59:34.008Z,3.25
2023-05-22T08:02:05.466Z,3.13
2023-05-22T08:04:36.671Z,3.60
2023-05-22T08:07:08.537Z,3.70
2023-05-22T08:09:39.477Z,3.15
2023-05-22T08:12:13.864Z,3.65
2023-05-22T08:14:44.973Z,3.67
2023-05-22T08:17:16.532Z,3.20
2023-05-22T08:19:47.693Z,3.40
2023-05-22T08:22:18.982Z,3.53
2023-05-22T08:24:49.832Z,3.88
2023-05-22T08:27:23.640Z,3.55
2023-05-22T08:29:54.740Z,4.20
2023-05-22T08:32:26.029Z,3.33
2023-05-22T08:34:57.003Z,3.65
2023-05-22T08:37:28.504Z,3.60
2023-05-22T08:39:59.368Z,3.58
2023-05-22T08:42:33.605Z,3.50
2023-05-22T08:45:04.564Z,3.38
2023-05-22T08:47:37.398Z,3.15
2023-05-22T08:50:09.613Z,2.90
2023-05-22T08:52:50.187Z,3.08
2023-05-22T08:55:22.605Z,3.03
2023-05-22T08:57:59.512Z,2.55
2023-05-22T09:00:30.566Z,3.40
2023-05-22T09:03:02.859Z,2.72
2023-05-22T09:05:34.518Z,2.83
2023-05-22T09:08:19.010Z,2.72
2023-05-22T09:10:51.182Z,2.78
2023-05-22T09:13:32.687Z,2.47
2023-05-22T09:16:11.697Z,2.28
2023-05-22T09:18:43.985Z,2.30
2023-05-22T09:21:29.005Z,2.97
2023-05-22T09:24:05.239Z,2.70
2023-05-22T09:26:36.302Z,2.75
2023-05-22T09:29:10.475Z,2.45
2023-05-22T09:31:45.828Z,2.67
2023-05-22T09:34:20.208Z,2.67
2023-05-22T09:36:51.928Z,2.88
2023-05-22T09:39:23.165Z,2.60
2023-05-22T09:41:54.473Z,2.25
2023-05-22T09:44:28.921Z,2.90
2023-05-22T09:46:59.948Z,2.80
2023-05-22T09:49:31.567Z,2.33
2023-05-22T09:52:03.317Z,2.58
2023-05-22T09:54:37.639Z,2.50
2023-05-22T09:57:13.058Z,2.25
2023-05-22T09:59:52.155Z,2.58
2023-05-22T10:02:24.468Z,2.10
2023-05-22T10:04:56.492Z,1.95
2023-05-22T10:07:33.346Z,2.40
2023-05-22T10:10:08.334Z,2.45
2023-05-22T10:12:45.501Z,2.75
2023-05-22T10:15:21.099Z,2.53
2023-05-22T10:17:52.891Z,2.53
2023-05-22T10:20:25.318Z,2.85
2023-05-22T10:22:58.014Z,2.10
2023-05-22T10:25:29.298Z,2.38
2023-05-22T10:28:02.169Z,2.72
2023-05-22T10:30:45.400Z,2.50
2023-05-22T10:33:42.053Z,2.53
2023-05-22T10:36:20.220Z,2.38
2023-05-22T10:39:06.141Z,2.85
2023-05-22T10:41:38.659Z,2.65
2023-05-22T10:44:10.400Z,2.30
2023-05-22T10:46:52.508Z,2.72
2023-05-22T10:49:28.741Z,2.58
2023-05-22T10:52:00.278Z,2.70
2023-05-22T10:54:44.307Z,2.38
2023-05-22T10:57:19.165Z,2.40
2023-05-22T10:59:51.728Z,2.38
2023-05-22T11:02:31.628Z,2.72
2023-05-22T11:05:38.473Z,2.40
2023-05-22T11:08:14.029Z,2.30
2023-05-22T11:10:59.476Z,2.15
2023-05-22T11:13:32.468Z,2.17
2023-05-22T11:16:08.789Z,2.45
2023-05-22T11:18:43.692Z,2.97
2023-05-22T11:21:17.140Z,2.35
2023-05-22T11:23:49.165Z,2.42
2023-05-22T11:26:26.416Z,2.50
2023-05-22T11:28:59.795Z,2.55
2023-05-22T11:31:32.599Z,2.42
2023-05-22T11:34:08.075Z,2.30
2023-05-22T11:36:39.208Z,2.45
2023-05-22T11:39:10.506Z,2.40
2023-05-22T11:41:41.420Z,2.25
2023-05-22T11:44:12.709Z,2.30
2023-05-22T11:46:43.595Z,2.45
2023-05-22T11:49:17.722Z,1.98
2023-05-22T11:51:48.675Z,2.63
2023-05-22T11:54:22.547Z,2.05
2023-05-22T11:56:53.406Z,1.90
2023-05-22T11:59:25.328Z,3.72
2023-05-22T12:01:56.274Z,2.10
2023-05-22T12:04:30.118Z,2.53
2023-05-22T12:07:01.209Z,2.63
2023-05-22T12:09:32.607Z,2.50
2023-05-22T12:12:03.526Z,2.53
2023-05-22T12:14:35.143Z,2.50
2023-05-22T12:17:07.234Z,2.35
2023-05-22T12:19:43.718Z,2.58
2023-05-22T12:22:15.660Z,2.28
2023-05-22T12:24:49.043Z,2.35
2023-05-22T12:27:19.879Z,2.22
2023-05-22T12:29:53.411Z,2.30
2023-05-22T12:32:26.013Z,2.28
2023-05-22T12:35:02.099Z,2.80
2023-05-22T12:37:33.644Z,2.40
2023-05-22T12:40:06.360Z,2.40
2023-05-22T12:42:37.328Z,2.55
2023-05-22T12:45:10.149Z,2.20
2023-05-22T12:47:41.082Z,2.13
2023-05-22T12:50:16.411Z,2.42
2023-05-22T12:52:47.310Z,2.80
2023-05-22T12:55:18.834Z,2.42
2023-05-22T12:57:49.787Z,2.47
2023-05-22T13:00:21.682Z,2.30
2023-05-22T13:02:52.851Z,2.45
2023-05-22T13:05:26.992Z,2.47
2023-05-22T13:07:57.958Z,2.60
2023-05-22T13:10:29.681Z,2.38
2023-05-22T13:13:00.662Z,2.50
2023-05-22T13:15:32.881Z,2.28
2023-05-22T13:18:04.518Z,2.40
2023-05-22T13:20:38.902Z,2.35
2023-05-22T13:23:09.900Z,2.45
2023-05-22T13:25:41.298Z,2.55
2023-05-22T13:28:12.287Z,2.58
2023-05-22T13:30:43.598Z,2.13
2023-05-22T13:33:14.502Z,2.20
2023-05-22T13:35:48.318Z,2.60
2023-05-22T13:38:19.164Z,2.70
2023-05-22T13:40:50.502Z,2.83
2023-05-22T13:43:21.837Z,2.35
2023-05-22T13:45:53.148Z,2.28
2023-05-22T13:48:24.065Z,2.47
2023-05-22T13:50:58.044Z,2.60
2023-05-22T13:53:29.197Z,2.60
2023-05-22T13:56:00.456Z,4.13
2023-05-22T13:58:31.841Z,2.90
2023-05-22T14:01:03.094Z,2.38
2023-05-22T14:03:33.991Z,1.98
2023-05-22T14:06:08.568Z,2.53
2023-05-22T14:08:39.371Z,2.60
2023-05-22T14:11:10.529Z,2.65
2023-05-22T14:13:41.383Z,2.28
2023-05-22T14:16:15.673Z,2.60
2023-05-22T14:18:46.658Z,3.22
2023-05-22T14:21:21.570Z,2.20
2023-05-22T14:23:52.449Z,2.45
2023-05-22T14:26:24.541Z,2.60
2023-05-22T14:28:56.042Z,2.60
2023-05-22T14:31:30.386Z,2.22
2023-05-22T14:34:03.582Z,2.42
2023-05-22T14:36:37.368Z,2.83
2023-05-22T14:39:09.084Z,1.98
2023-05-22T14:41:40.753Z,2.58
2023-05-22T14:44:12.032Z,2.70
2023-05-22T14:46:43.380Z,2.58
2023-05-22T14:49:14.390Z,2.65
2023-05-22T14:51:48.591Z,2.85
2023-05-22T14:54:20.497Z,3.70
2023-05-22T14:56:52.075Z,2.60
2023-05-22T14:59:23.279Z,3.63
2023-05-22T15:01:54.554Z,3.58
2023-05-22T15:04:25.731Z,2.85
2023-05-22T15:06:59.616Z,2.72
2023-05-22T15:09:31.290Z,3.20
2023-05-22T15:12:02.948Z,3.15
2023-05-22T15:14:33.943Z,2.80
2023-05-22T15:17:05.195Z,3.30
2023-05-22T15:19:36.935Z,4.55
2023-05-22T15:22:19.576Z,2.88
2023-05-22T15:24:51.226Z,6.65
2023-05-22T15:27:22.526Z,8.65
2023-05-22T15:29:53.499Z,8.65
2023-05-22T15:32:25.181Z,5.30
2023-05-22T15:34:56.163Z,8.60
2023-05-22T15:37:32.371Z,4.55
2023-05-22T15:40:04.500Z,3.83
2023-05-22T15:42:36.180Z,4.00
2023-05-22T15:45:08.891Z,3.65
2023-05-22T15:47:40.185Z,4.75
2023-05-22T15:50:12.370Z,3.78
2023-05-22T15:52:46.459Z,3.47
2023-05-22T15:55:19.606Z,3.03
2023-05-22T15:57:51.058Z,3.72
2023-05-22T16:00:24.229Z,3.05
2023-05-22T16:02:55.792Z,2.72
2023-05-22T16:05:26.922Z,2.80
2023-05-22T16:08:00.814Z,2.60
2023-05-22T16:10:31.712Z,2.55
2023-05-22T16:13:05.447Z,2.70
2023-05-22T16:15:37.949Z,2.78
2023-05-22T16:18:11.563Z,2.80
2023-05-22T16:20:42.563Z,2.60
2023-05-22T16:23:16.577Z,2.65
2023-05-22T16:25:48.927Z,2.53
2023-05-22T16:28:21.454Z,2.55
2023-05-22T16:30:52.346Z,2.83
2023-05-22T16:33:23.716Z,4.50
2023-05-22T16:35:54.708Z,2.70
2023-05-22T16:38:28.556Z,3.00
2023-05-22T16:40:59.901Z,3.17
2023-05-22T16:43:31.541Z,3.40
2023-05-22T16:46:02.391Z,2.97
2023-05-22T16:48:33.672Z,3.00
2023-05-22T16:51:04.569Z,3.10
2023-05-22T16:53:41.260Z,2.72
2023-05-22T16:56:12.231Z,3.92
2023-05-22T16:58:43.637Z,5.00
2023-05-22T17:01:14.700Z,3.40
2023-05-22T17:03:46.236Z,3.30
2023-05-22T17:06:20.119Z,3.55
2023-05-22T17:08:54.867Z,3.88
2023-05-22T17:11:27.472Z,7.82
2023-05-22T17:14:11.539Z,7.63
2023-05-22T17:16:44.225Z,29.95
2023-05-22T17:19:17.268Z,13.18
2023-05-22T17:21:50.935Z,7.03
2023-05-22T17:24:24.983Z,11.35
2023-05-22T17:26:55.815Z,11.75
2023-05-22T17:29:28.329Z,9.60
2023-05-22T17:32:05.613Z,8.15
2023-05-22T17:34:38.879Z,10.57
2023-05-22T17:37:10.684Z,11.30
2023-05-22T17:39:44.677Z,12.35
2023-05-22T17:42:17.485Z,4.53
2023-05-22T17:44:48.736Z,5.88
2023-05-22T17:49:54.116Z,5.47
2023-05-22T17:52:34.008Z,5.10
2023-05-22T17:55:08.767Z,10.77
2023-05-22T17:57:39.696Z,13.18
2023-05-22T18:00:12.560Z,6.65
2023-05-22T18:02:43.618Z,5.68
2023-05-22T18:05:15.613Z,9.80
2023-05-22T18:07:46.490Z,11.85
2023-05-22T18:10:20.497Z,8.93
2023-05-22T18:12:51.430Z,12.52
2023-05-22T18:15:22.669Z,6.43
2023-05-22T18:22:55.494Z,8.43
2023-05-22T18:25:29.738Z,11.85
2023-05-22T18:28:00.672Z,5.00
2023-05-22T18:30:35.697Z,9.77
2023-05-22T18:33:07.018Z,9.05
2023-05-22T18:35:38.549Z,6.82
2023-05-22T18:38:09.780Z,9.50
2023-05-22T18:40:43.844Z,10.32
2023-05-22T18:43:17.672Z,10.80
2023-05-22T18:45:49.125Z,9.05
2023-05-22T18:48:20.553Z,8.27
2023-05-22T18:50:52.338Z,6.93
2023-05-22T18:53:25.514Z,7.65
2023-05-22T18:55:59.328Z,6.53
2023-05-22T18:58:30.216Z,5.97
2023-05-22T19:01:02.129Z,6.05
2023-05-22T19:03:33.306Z,5.43
2023-05-22T19:06:05.683Z,5.85
2023-05-22T19:08:36.688Z,5.68
2023-05-22T19:11:10.710Z,6.00
2023-05-22T19:13:41.629Z,6.70
2023-05-22T19:16:12.952Z,7.95
2023-05-22T19:18:44.495Z,6.35
2023-05-22T19:21:15.835Z,6.60
2023-05-22T19:23:48.709Z,5.75
2023-05-22T19:26:22.960Z,6.95
2023-05-22T19:28:53.953Z,6.85
2023-05-22T19:31:25.388Z,6.22
2023-05-22T19:33:57.214Z,5.70
2023-05-22T19:36:28.858Z,5.68
2023-05-22T19:38:59.805Z,6.95
2023-05-22T19:41:33.987Z,6.03
2023-05-22T19:44:04.907Z,5.65
2023-05-22T19:46:36.203Z,5.25
2023-05-22T19:49:07.352Z,5.50
2023-05-22T19:51:38.779Z,5.30
2023-05-22T19:54:09.741Z,6.13
2023-05-22T19:56:43.592Z,5.25
2023-05-22T19:59:14.534Z,4.80
2023-05-22T20:01:46.508Z,5.53
2023-05-22T20:04:17.527Z,5.07
2023-05-22T20:06:49.517Z,4.97
2023-05-22T20:09:20.684Z,4.82
2023-05-22T20:11:54.663Z,5.30
2023-05-22T20:14:25.605Z,5.38
2023-05-22T20:16:59.189Z,5.35
2023-05-22T20:19:30.454Z,5.50
2023-05-22T20:22:01.823Z,4.78
2023-05-22T20:27:07.478Z,5.00
2023-05-22T20:29:38.356Z,3.90
2023-05-22T20:32:10.319Z,4.65
2023-05-22T20:34:41.213Z,3.95
2023-05-22T20:37:13.906Z,5.30
2023-05-22T20:39:46.709Z,4.50
2023-05-22T20:42:20.925Z,4.63
2023-05-22T20:44:53.046Z,4.60
2023-05-22T20:47:25.194Z,4.13
2023-05-22T20:49:56.203Z,4.40
2023-05-22T20:52:30.721Z,4.80
2023-05-22T20:55:01.905Z,5.28
2023-05-22T20:57:35.987Z,4.88
2023-05-22T21:00:11.414Z,5.22
2023-05-22T21:02:43.118Z,5.07
2023-05-22T21:05:14.246Z,5.15
2023-05-22T21:07:45.479Z,5.68
2023-05-22T21:10:17.293Z,4.93
2023-05-22T21:12:51.195Z,5.35
2023-05-22T21:15:22.128Z,5.97
2023-05-22T21:17:53.492Z,5.28
2023-05-22T21:20:25.324Z,5.07
2023-05-22T21:22:57.391Z,4.55
2023-05-22T21:25:28.372Z,4.30
2023-05-22T21:28:02.640Z,5.03
2023-05-22T21:30:33.498Z,5.03
2023-05-22T21:33:04.812Z,4.70
2023-05-22T21:38:07.429Z,4.97
2023-05-22T21:43:14.796Z,8.18
2023-05-22T21:45:45.747Z,13.00
2023-05-22T21:48:17.928Z,11.85
2023-05-22T21:50:49.009Z,10.00
2023-05-22T21:53:21.199Z,7.65
2023-05-22T21:55:52.347Z,8.02
2023-05-22T21:58:26.201Z,8.73
2023-05-22T22:00:57.094Z,8.70
2023-05-22T22:03:28.940Z,7.57
2023-05-22T22:06:00.082Z,6.32
2023-05-22T22:08:32.198Z,7.75
2023-05-22T22:11:03.262Z,8.38
2023-05-22T22:13:37.320Z,9.05
2023-05-22T22:16:08.744Z,9.35
2023-05-22T22:18:41.023Z,7.55
2023-05-22T22:21:12.476Z,6.80
2023-05-22T22:23:44.612Z,7.10
2023-05-22T22:26:15.447Z,7.97
2023-05-22T22:28:49.499Z,6.90
2023-05-22T22:31:20.598Z,7.55
2023-05-22T22:33:51.957Z,8.23
2023-05-22T22:38:54.773Z,8.80
2023-05-22T22:41:26.399Z,8.35
2023-05-22T22:44:00.302Z,9.73
2023-05-22T22:46:31.323Z,11.25
2023-05-22T22:49:02.904Z,11.52
2023-05-22T22:51:34.904Z,9.43
2023-05-22T22:54:06.428Z,10.27
2023-05-22T22:56:37.520Z,8.20
2023-05-22T22:59:11.526Z,8.73
2023-05-22T23:01:42.599Z,8.95
2023-05-22T23:04:14.275Z,9.10
2023-05-22T23:06:46.483Z,7.25
2023-05-22T23:09:17.980Z,6.43
2023-05-22T23:11:48.863Z,7.07
2023-05-22T23:14:22.872Z,6.93
2023-05-22T23:16:53.758Z,6.60
2023-05-22T23:19:25.249Z,7.60
2023-05-22T23:21:56.194Z,7.00
2023-05-22T23:24:27.441Z,7.40
2023-05-22T23:26:58.307Z,8.13
2023-05-22T23:29:32.377Z,7.15
2023-05-22T23:32:03.770Z,7.28
2023-05-22T23:34:35.257Z,7.38
2023-05-22T23:37:07.171Z,7.22
2023-05-22T23:39:38.605Z,6.35
2023-05-22T23:42:12.901Z,6.53
2023-05-22T23:44:47.528Z,6.93
2023-05-22T23:47:19.190Z,6.63
2023-05-22T23:49:51.959Z,6.80
2023-05-22T23:52:22.803Z,8.07
2023-05-22T23:54:54.045Z,6.72
2023-05-22T23:59:58.326Z,7.10
